sensor_id;sensor_type;location;lat;lon;timestamp;P1;durP1;ratioP1;P2;durP2;ratioP2
80101;SDS011;69407;44.966;19.622;2024-03-25T00:00:11;37.70;;;22.33;;
80101;SDS011;69407;44.966;19.622;2024-03-25T00:02:38;33.45;;;21.20;;
80101;SDS011;69407;44.966;19.622;2024-03-25T00:05:04;37.15;;;19.83;;
80101;SDS011;69407;44.966;19.622;2024-03-25T00:07:31;37.85;;;20.15;;
80101;SDS011;69407;44.966;19.622;2024-03-25T00:09:57;34.00;;;20.20;;
80101;SDS011;69407;44.966;19.622;2024-03-25T00:12:24;37.40;;;22.05;;
80101;SDS011;69407;44.966;19.622;2024-03-25T00:14:50;36.05;;;21.58;;
80101;SDS011;69407;44.966;19.622;2024-03-25T00:17:16;34.50;;;20.40;;
80101;SDS011;69407;44.966;19.622;2024-03-25T00:19:41;35.50;;;19.70;;
80101;SDS011;69407;44.966;19.622;2024-03-25T00:22:07;33.90;;;19.48;;
80101;SDS011;69407;44.966;19.622;2024-03-25T00:24:32;31.45;;;17.95;;
80101;SDS011;69407;44.966;19.622;2024-03-25T00:26:58;36.83;;;19.63;;
80101;SDS011;69407;44.966;19.622;2024-03-25T00:29:23;31.23;;;17.95;;
80101;SDS011;69407;44.966;19.622;2024-03-25T00:31:49;30.05;;;15.57;;
80101;SDS011;69407;44.966;19.622;2024-03-25T00:34:14;32.50;;;17.60;;
80101;SDS011;69407;44.966;19.622;2024-03-25T00:36:40;29.42;;;16.55;;
80101;SDS011;69407;44.966;19.622;2024-03-25T00:39:05;33.03;;;17.20;;
80101;SDS011;69407;44.966;19.622;2024-03-25T00:41:48;34.25;;;16.52;;
80101;SDS011;69407;44.966;19.622;2024-03-25T00:44:14;31.88;;;16.27;;
80101;SDS011;69407;44.966;19.622;2024-03-25T00:46:39;32.83;;;15.43;;
80101;SDS011;69407;44.966;19.622;2024-03-25T00:49:06;32.30;;;16.60;;
80101;SDS011;69407;44.966;19.622;2024-03-25T00:51:32;35.40;;;17.42;;
80101;SDS011;69407;44.966;19.622;2024-03-25T00:53:57;33.40;;;17.73;;
80101;SDS011;69407;44.966;19.622;2024-03-25T00:56:23;34.87;;;17.40;;
80101;SDS011;69407;44.966;19.622;2024-03-25T00:58:49;33.22;;;16.13;;
80101;SDS011;69407;44.966;19.622;2024-03-25T01:01:15;33.88;;;15.63;;
80101;SDS011;69407;44.966;19.622;2024-03-25T01:03:40;40.00;;;17.65;;
80101;SDS011;69407;44.966;19.622;2024-03-25T01:06:05;35.23;;;16.27;;
80101;SDS011;69407;44.966;19.622;2024-03-25T01:08:31;39.72;;;17.17;;
80101;SDS011;69407;44.966;19.622;2024-03-25T01:13:48;34.30;;;14.88;;
80101;SDS011;69407;44.966;19.622;2024-03-25T01:16:13;30.98;;;14.30;;
80101;SDS011;69407;44.966;19.622;2024-03-25T01:18:39;27.97;;;13.73;;
80101;SDS011;69407;44.966;19.622;2024-03-25T01:21:04;23.37;;;12.60;;
80101;SDS011;69407;44.966;19.622;2024-03-25T01:23:30;22.13;;;12.18;;
80101;SDS011;69407;44.966;19.622;2024-03-25T01:25:55;23.27;;;11.77;;
80101;SDS011;69407;44.966;19.622;2024-03-25T01:28:20;24.00;;;12.88;;
80101;SDS011;69407;44.966;19.622;2024-03-25T01:30:46;23.63;;;12.77;;
80101;SDS011;69407;44.966;19.622;2024-03-25T01:33:11;24.20;;;12.50;;
80101;SDS011;69407;44.966;19.622;2024-03-25T01:35:36;26.23;;;12.40;;
80101;SDS011;69407;44.966;19.622;2024-03-25T01:38:01;24.77;;;12.13;;
80101;SDS011;69407;44.966;19.622;2024-03-25T01:40:28;31.75;;;15.60;;
80101;SDS011;69407;44.966;19.622;2024-03-25T01:42:57;31.38;;;15.57;;
80101;SDS011;69407;44.966;19.622;2024-03-25T01:45:23;25.02;;;12.75;;
80101;SDS011;69407;44.966;19.622;2024-03-25T01:47:49;28.85;;;14.63;;
80101;SDS011;69407;44.966;19.622;2024-03-25T01:50:14;34.00;;;16.10;;
80101;SDS011;69407;44.966;19.622;2024-03-25T01:52:41;30.40;;;14.57;;
80101;SDS011;69407;44.966;19.622;2024-03-25T01:55:07;32.25;;;13.35;;
80101;SDS011;69407;44.966;19.622;2024-03-25T01:57:34;35.33;;;15.63;;
80101;SDS011;69407;44.966;19.622;2024-03-25T01:59:59;30.80;;;14.13;;
80101;SDS011;69407;44.966;19.622;2024-03-25T02:02:24;31.65;;;14.20;;
80101;SDS011;69407;44.966;19.622;2024-03-25T02:04:49;25.73;;;12.15;;
80101;SDS011;69407;44.966;19.622;2024-03-25T02:07:15;29.80;;;12.70;;
80101;SDS011;69407;44.966;19.622;2024-03-25T02:09:41;25.50;;;12.30;;
80101;SDS011;69407;44.966;19.622;2024-03-25T02:12:07;33.47;;;14.85;;
80101;SDS011;69407;44.966;19.622;2024-03-25T02:14:34;28.90;;;13.43;;
80101;SDS011;69407;44.966;19.622;2024-03-25T02:16:59;28.60;;;12.77;;
80101;SDS011;69407;44.966;19.622;2024-03-25T02:19:25;27.23;;;12.95;;
80101;SDS011;69407;44.966;19.622;2024-03-25T02:21:50;24.88;;;12.55;;
80101;SDS011;69407;44.966;19.622;2024-03-25T02:24:16;26.65;;;13.30;;
80101;SDS011;69407;44.966;19.622;2024-03-25T02:26:44;28.80;;;14.63;;
80101;SDS011;69407;44.966;19.622;2024-03-25T02:29:09;25.45;;;14.30;;
80101;SDS011;69407;44.966;19.622;2024-03-25T02:31:35;26.58;;;13.57;;
80101;SDS011;69407;44.966;19.622;2024-03-25T02:34:00;26.40;;;14.07;;
80101;SDS011;69407;44.966;19.622;2024-03-25T02:36:25;27.65;;;13.80;;
80101;SDS011;69407;44.966;19.622;2024-03-25T02:38:51;29.23;;;14.13;;
80101;SDS011;69407;44.966;19.622;2024-03-25T02:41:16;28.35;;;12.75;;
80101;SDS011;69407;44.966;19.622;2024-03-25T02:43:41;22.08;;;12.00;;
80101;SDS011;69407;44.966;19.622;2024-03-25T02:46:10;26.52;;;12.60;;
80101;SDS011;69407;44.966;19.622;2024-03-25T02:48:35;25.70;;;12.93;;
80101;SDS011;69407;44.966;19.622;2024-03-25T02:51:00;22.20;;;11.48;;
80101;SDS011;69407;44.966;19.622;2024-03-25T02:53:25;24.30;;;12.38;;
80101;SDS011;69407;44.966;19.622;2024-03-25T02:55:51;25.58;;;12.32;;
80101;SDS011;69407;44.966;19.622;2024-03-25T02:58:16;26.52;;;11.63;;
80101;SDS011;69407;44.966;19.622;2024-03-25T03:00:41;24.95;;;13.32;;
80101;SDS011;69407;44.966;19.622;2024-03-25T03:03:07;33.30;;;13.90;;
80101;SDS011;69407;44.966;19.622;2024-03-25T03:05:32;37.92;;;15.27;;
80101;SDS011;69407;44.966;19.622;2024-03-25T03:07:58;31.63;;;14.20;;
80101;SDS011;69407;44.966;19.622;2024-03-25T03:10:23;34.65;;;14.00;;
80101;SDS011;69407;44.966;19.622;2024-03-25T03:12:48;29.25;;;13.55;;
80101;SDS011;69407;44.966;19.622;2024-03-25T03:15:14;28.52;;;13.00;;
80101;SDS011;69407;44.966;19.622;2024-03-25T03:17:40;27.95;;;14.68;;
80101;SDS011;69407;44.966;19.622;2024-03-25T03:20:05;35.53;;;14.73;;
80101;SDS011;69407;44.966;19.622;2024-03-25T03:22:31;33.50;;;15.48;;
80101;SDS011;69407;44.966;19.622;2024-03-25T03:24:57;30.20;;;14.40;;
80101;SDS011;69407;44.966;19.622;2024-03-25T03:27:23;24.23;;;12.63;;
80101;SDS011;69407;44.966;19.622;2024-03-25T03:29:48;25.85;;;13.13;;
80101;SDS011;69407;44.966;19.622;2024-03-25T03:32:14;29.67;;;12.85;;
80101;SDS011;69407;44.966;19.622;2024-03-25T03:34:39;23.63;;;12.10;;
80101;SDS011;69407;44.966;19.622;2024-03-25T03:37:05;27.27;;;13.35;;
80101;SDS011;69407;44.966;19.622;2024-03-25T03:39:30;22.75;;;12.35;;
80101;SDS011;69407;44.966;19.622;2024-03-25T03:41:55;27.95;;;12.38;;
80101;SDS011;69407;44.966;19.622;2024-03-25T03:44:21;24.67;;;12.88;;
80101;SDS011;69407;44.966;19.622;2024-03-25T03:46:46;26.65;;;12.23;;
80101;SDS011;69407;44.966;19.622;2024-03-25T03:49:11;24.00;;;11.73;;
80101;SDS011;69407;44.966;19.622;2024-03-25T03:51:37;31.42;;;12.45;;
80101;SDS011;69407;44.966;19.622;2024-03-25T03:54:02;25.25;;;10.90;;
80101;SDS011;69407;44.966;19.622;2024-03-25T03:56:27;28.35;;;11.27;;
80101;SDS011;69407;44.966;19.622;2024-03-25T03:58:53;22.88;;;10.48;;
80101;SDS011;69407;44.966;19.622;2024-03-25T04:01:18;24.10;;;11.48;;
80101;SDS011;69407;44.966;19.622;2024-03-25T04:03:44;25.60;;;10.65;;
80101;SDS011;69407;44.966;19.622;2024-03-25T04:06:10;25.77;;;11.15;;
80101;SDS011;69407;44.966;19.622;2024-03-25T04:08:36;24.88;;;11.13;;
80101;SDS011;69407;44.966;19.622;2024-03-25T04:11:02;25.33;;;11.57;;
80101;SDS011;69407;44.966;19.622;2024-03-25T04:13:27;25.20;;;11.18;;
80101;SDS011;69407;44.966;19.622;2024-03-25T04:15:52;21.52;;;10.80;;
80101;SDS011;69407;44.966;19.622;2024-03-25T04:18:18;23.43;;;11.43;;
80101;SDS011;69407;44.966;19.622;2024-03-25T04:20:44;22.85;;;11.85;;
80101;SDS011;69407;44.966;19.622;2024-03-25T04:23:09;52.53;;;23.73;;
80101;SDS011;69407;44.966;19.622;2024-03-25T04:25:35;32.47;;;16.08;;
80101;SDS011;69407;44.966;19.622;2024-03-25T04:28:02;40.85;;;21.92;;
80101;SDS011;69407;44.966;19.622;2024-03-25T04:30:28;25.63;;;13.00;;
80101;SDS011;69407;44.966;19.622;2024-03-25T04:32:53;58.25;;;32.50;;
80101;SDS011;69407;44.966;19.622;2024-03-25T04:35:18;32.78;;;17.85;;
80101;SDS011;69407;44.966;19.622;2024-03-25T04:37:44;39.50;;;19.85;;
80101;SDS011;69407;44.966;19.622;2024-03-25T04:40:09;24.92;;;12.68;;
80101;SDS011;69407;44.966;19.622;2024-03-25T04:42:35;24.92;;;11.82;;
80101;SDS011;69407;44.966;19.622;2024-03-25T04:45:01;37.33;;;16.52;;
80101;SDS011;69407;44.966;19.622;2024-03-25T04:47:26;34.60;;;15.15;;
80101;SDS011;69407;44.966;19.622;2024-03-25T04:49:52;30.13;;;12.43;;
80101;SDS011;69407;44.966;19.622;2024-03-25T04:52:17;26.17;;;11.75;;
80101;SDS011;69407;44.966;19.622;2024-03-25T04:54:43;25.13;;;11.80;;
80101;SDS011;69407;44.966;19.622;2024-03-25T04:57:08;25.95;;;11.77;;
80101;SDS011;69407;44.966;19.622;2024-03-25T04:59:33;25.73;;;13.27;;
80101;SDS011;69407;44.966;19.622;2024-03-25T05:01:59;32.47;;;12.85;;
80101;SDS011;69407;44.966;19.622;2024-03-25T05:04:24;23.58;;;11.07;;
80101;SDS011;69407;44.966;19.622;2024-03-25T05:06:49;23.23;;;10.55;;
80101;SDS011;69407;44.966;19.622;2024-03-25T05:09:15;25.40;;;13.00;;
80101;SDS011;69407;44.966;19.622;2024-03-25T05:11:41;27.27;;;12.85;;
80101;SDS011;69407;44.966;19.622;2024-03-25T05:14:07;24.55;;;11.63;;
80101;SDS011;69407;44.966;19.622;2024-03-25T05:16:32;22.55;;;10.93;;
80101;SDS011;69407;44.966;19.622;2024-03-25T05:18:57;28.23;;;11.45;;
80101;SDS011;69407;44.966;19.622;2024-03-25T05:21:23;22.23;;;10.35;;
80101;SDS011;69407;44.966;19.622;2024-03-25T05:23:48;24.60;;;11.02;;
80101;SDS011;69407;44.966;19.622;2024-03-25T05:26:13;25.90;;;11.88;;
80101;SDS011;69407;44.966;19.622;2024-03-25T05:28:39;23.77;;;12.13;;
80101;SDS011;69407;44.966;19.622;2024-03-25T05:31:10;29.97;;;14.27;;
80101;SDS011;69407;44.966;19.622;2024-03-25T05:33:35;26.88;;;12.88;;
80101;SDS011;69407;44.966;19.622;2024-03-25T05:36:01;24.52;;;11.52;;
80101;SDS011;69407;44.966;19.622;2024-03-25T05:38:27;25.15;;;13.50;;
80101;SDS011;69407;44.966;19.622;2024-03-25T05:40:52;27.98;;;14.15;;
80101;SDS011;69407;44.966;19.622;2024-03-25T05:43:17;28.23;;;12.27;;
80101;SDS011;69407;44.966;19.622;2024-03-25T05:45:55;24.33;;;12.23;;
80101;SDS011;69407;44.966;19.622;2024-03-25T05:48:21;28.67;;;13.43;;
80101;SDS011;69407;44.966;19.622;2024-03-25T05:50:46;27.77;;;12.88;;
80101;SDS011;69407;44.966;19.622;2024-03-25T05:53:11;25.42;;;12.07;;
80101;SDS011;69407;44.966;19.622;2024-03-25T05:55:37;27.02;;;12.75;;
80101;SDS011;69407;44.966;19.622;2024-03-25T05:58:03;20.65;;;10.95;;
80101;SDS011;69407;44.966;19.622;2024-03-25T06:00:29;30.15;;;14.05;;
80101;SDS011;69407;44.966;19.622;2024-03-25T06:02:55;25.65;;;12.48;;
80101;SDS011;69407;44.966;19.622;2024-03-25T06:05:20;24.45;;;10.70;;
80101;SDS011;69407;44.966;19.622;2024-03-25T06:07:46;27.45;;;14.10;;
80101;SDS011;69407;44.966;19.622;2024-03-25T06:10:11;26.38;;;12.32;;
80101;SDS011;69407;44.966;19.622;2024-03-25T06:12:36;21.77;;;11.48;;
80101;SDS011;69407;44.966;19.622;2024-03-25T06:15:02;26.67;;;12.02;;
80101;SDS011;69407;44.966;19.622;2024-03-25T06:17:27;21.58;;;10.60;;
80101;SDS011;69407;44.966;19.622;2024-03-25T06:19:53;27.52;;;14.32;;
80101;SDS011;69407;44.966;19.622;2024-03-25T06:22:18;36.38;;;15.65;;
80101;SDS011;69407;44.966;19.622;2024-03-25T06:24:43;25.27;;;11.88;;
80101;SDS011;69407;44.966;19.622;2024-03-25T06:27:09;26.67;;;12.38;;
80101;SDS011;69407;44.966;19.622;2024-03-25T06:29:35;32.38;;;13.07;;
80101;SDS011;69407;44.966;19.622;2024-03-25T06:32:00;52.70;;;21.67;;
80101;SDS011;69407;44.966;19.622;2024-03-25T06:34:44;56.17;;;23.13;;
80101;SDS011;69407;44.966;19.622;2024-03-25T06:37:09;41.80;;;17.70;;
80101;SDS011;69407;44.966;19.622;2024-03-25T06:39:35;38.97;;;16.17;;
80101;SDS011;69407;44.966;19.622;2024-03-25T06:42:00;40.17;;;18.48;;
80101;SDS011;69407;44.966;19.622;2024-03-25T06:44:26;38.67;;;18.05;;
80101;SDS011;69407;44.966;19.622;2024-03-25T06:46:51;41.35;;;21.77;;
80101;SDS011;69407;44.966;19.622;2024-03-25T06:49:16;45.20;;;23.92;;
80101;SDS011;69407;44.966;19.622;2024-03-25T06:51:41;41.95;;;18.75;;
80101;SDS011;69407;44.966;19.622;2024-03-25T06:54:07;34.65;;;15.70;;
80101;SDS011;69407;44.966;19.622;2024-03-25T06:56:32;30.73;;;16.33;;
80101;SDS011;69407;44.966;19.622;2024-03-25T06:58:58;29.23;;;17.27;;
80101;SDS011;69407;44.966;19.622;2024-03-25T07:01:23;28.33;;;14.13;;
80101;SDS011;69407;44.966;19.622;2024-03-25T07:03:48;19.92;;;11.30;;
80101;SDS011;69407;44.966;19.622;2024-03-25T07:06:14;17.95;;;8.70;;
80101;SDS011;69407;44.966;19.622;2024-03-25T07:08:41;21.17;;;11.38;;
80101;SDS011;69407;44.966;19.622;2024-03-25T07:11:07;21.92;;;11.23;;
80101;SDS011;69407;44.966;19.622;2024-03-25T07:13:32;24.75;;;12.57;;
80101;SDS011;69407;44.966;19.622;2024-03-25T07:15:58;26.02;;;13.25;;
80101;SDS011;69407;44.966;19.622;2024-03-25T07:18:24;25.05;;;13.77;;
80101;SDS011;69407;44.966;19.622;2024-03-25T07:20:49;20.65;;;10.52;;
80101;SDS011;69407;44.966;19.622;2024-03-25T07:23:15;19.27;;;10.88;;
80101;SDS011;69407;44.966;19.622;2024-03-25T07:25:40;22.20;;;11.88;;
80101;SDS011;69407;44.966;19.622;2024-03-25T07:28:06;16.80;;;8.77;;
80101;SDS011;69407;44.966;19.622;2024-03-25T07:30:31;16.15;;;8.52;;
80101;SDS011;69407;44.966;19.622;2024-03-25T07:32:57;16.17;;;8.25;;
80101;SDS011;69407;44.966;19.622;2024-03-25T07:35:23;17.67;;;10.13;;
80101;SDS011;69407;44.966;19.622;2024-03-25T07:37:48;16.40;;;8.95;;
80101;SDS011;69407;44.966;19.622;2024-03-25T07:40:17;22.63;;;10.77;;
80101;SDS011;69407;44.966;19.622;2024-03-25T07:42:42;15.05;;;9.27;;
80101;SDS011;69407;44.966;19.622;2024-03-25T07:45:07;13.45;;;7.82;;
80101;SDS011;69407;44.966;19.622;2024-03-25T07:47:33;15.38;;;8.85;;
80101;SDS011;69407;44.966;19.622;2024-03-25T07:49:58;14.45;;;8.20;;
80101;SDS011;69407;44.966;19.622;2024-03-25T07:52:24;16.05;;;8.98;;
80101;SDS011;69407;44.966;19.622;2024-03-25T07:54:49;12.13;;;7.90;;
80101;SDS011;69407;44.966;19.622;2024-03-25T07:57:15;15.88;;;8.55;;
80101;SDS011;69407;44.966;19.622;2024-03-25T07:59:40;9.68;;;6.88;;
80101;SDS011;69407;44.966;19.622;2024-03-25T08:02:05;11.57;;;7.50;;
80101;SDS011;69407;44.966;19.622;2024-03-25T08:04:31;14.02;;;8.73;;
80101;SDS011;69407;44.966;19.622;2024-03-25T08:06:56;12.18;;;6.90;;
80101;SDS011;69407;44.966;19.622;2024-03-25T08:09:21;11.88;;;7.50;;
80101;SDS011;69407;44.966;19.622;2024-03-25T08:11:47;11.80;;;7.60;;
80101;SDS011;69407;44.966;19.622;2024-03-25T08:14:12;13.65;;;8.77;;
80101;SDS011;69407;44.966;19.622;2024-03-25T08:16:37;8.95;;;6.93;;
80101;SDS011;69407;44.966;19.622;2024-03-25T08:19:03;8.43;;;5.78;;
80101;SDS011;69407;44.966;19.622;2024-03-25T08:21:28;10.15;;;6.03;;
80101;SDS011;69407;44.966;19.622;2024-03-25T08:23:54;10.55;;;7.20;;
80101;SDS011;69407;44.966;19.622;2024-03-25T08:26:19;8.82;;;6.93;;
80101;SDS011;69407;44.966;19.622;2024-03-25T08:28:44;8.80;;;5.78;;
80101;SDS011;69407;44.966;19.622;2024-03-25T08:31:10;9.23;;;6.40;;
80101;SDS011;69407;44.966;19.622;2024-03-25T08:33:35;10.93;;;7.35;;
80101;SDS011;69407;44.966;19.622;2024-03-25T08:36:00;9.87;;;6.53;;
80101;SDS011;69407;44.966;19.622;2024-03-25T08:38:26;8.35;;;5.78;;
80101;SDS011;69407;44.966;19.622;2024-03-25T08:40:51;6.70;;;5.63;;
80101;SDS011;69407;44.966;19.622;2024-03-25T08:43:17;8.10;;;5.68;;
80101;SDS011;69407;44.966;19.622;2024-03-25T08:45:43;12.00;;;7.90;;
80101;SDS011;69407;44.966;19.622;2024-03-25T08:48:08;10.75;;;7.53;;
80101;SDS011;69407;44.966;19.622;2024-03-25T08:50:33;10.70;;;9.20;;
80101;SDS011;69407;44.966;19.622;2024-03-25T08:52:58;12.18;;;9.23;;
80101;SDS011;69407;44.966;19.622;2024-03-25T08:55:24;10.10;;;7.43;;
80101;SDS011;69407;44.966;19.622;2024-03-25T08:57:49;9.52;;;6.47;;
80101;SDS011;69407;44.966;19.622;2024-03-25T09:02:43;11.00;;;7.25;;
80101;SDS011;69407;44.966;19.622;2024-03-25T09:05:08;10.23;;;7.07;;
80101;SDS011;69407;44.966;19.622;2024-03-25T09:07:34;8.90;;;7.95;;
80101;SDS011;69407;44.966;19.622;2024-03-25T09:10:00;4.50;;;3.33;;
80101;SDS011;69407;44.966;19.622;2024-03-25T09:12:44;4.38;;;3.78;;
80101;SDS011;69407;44.966;19.622;2024-03-25T09:15:09;5.38;;;4.55;;
80101;SDS011;69407;44.966;19.622;2024-03-25T09:17:37;7.03;;;4.85;;
80101;SDS011;69407;44.966;19.622;2024-03-25T09:20:04;9.55;;;6.03;;
80101;SDS011;69407;44.966;19.622;2024-03-25T09:22:33;14.60;;;9.73;;
80101;SDS011;69407;44.966;19.622;2024-03-25T09:24:58;11.70;;;7.82;;
80101;SDS011;69407;44.966;19.622;2024-03-25T09:27:23;10.68;;;4.80;;
80101;SDS011;69407;44.966;19.622;2024-03-25T09:29:49;9.40;;;5.65;;
80101;SDS011;69407;44.966;19.622;2024-03-25T09:32:14;9.25;;;4.93;;
80101;SDS011;69407;44.966;19.622;2024-03-25T09:34:40;11.13;;;5.40;;
80101;SDS011;69407;44.966;19.622;2024-03-25T09:37:05;7.43;;;4.22;;
80101;SDS011;69407;44.966;19.622;2024-03-25T09:39:30;9.70;;;6.63;;
80101;SDS011;69407;44.966;19.622;2024-03-25T09:41:56;4.65;;;2.75;;
80101;SDS011;69407;44.966;19.622;2024-03-25T09:44:24;4.43;;;2.45;;
80101;SDS011;69407;44.966;19.622;2024-03-25T09:46:50;10.45;;;5.50;;
80101;SDS011;69407;44.966;19.622;2024-03-25T09:49:16;9.57;;;5.28;;
80101;SDS011;69407;44.966;19.622;2024-03-25T09:51:41;19.05;;;8.45;;
80101;SDS011;69407;44.966;19.622;2024-03-25T09:54:07;8.60;;;4.18;;
80101;SDS011;69407;44.966;19.622;2024-03-25T09:56:32;4.47;;;2.35;;
80101;SDS011;69407;44.966;19.622;2024-03-25T09:58:58;4.68;;;3.33;;
80101;SDS011;69407;44.966;19.622;2024-03-25T10:01:24;11.88;;;5.22;;
80101;SDS011;69407;44.966;19.622;2024-03-25T10:03:49;5.90;;;3.40;;
80101;SDS011;69407;44.966;19.622;2024-03-25T10:06:16;4.82;;;2.42;;
80101;SDS011;69407;44.966;19.622;2024-03-25T10:08:41;11.85;;;5.32;;
80101;SDS011;69407;44.966;19.622;2024-03-25T10:11:06;6.07;;;2.22;;
80101;SDS011;69407;44.966;19.622;2024-03-25T10:13:32;4.97;;;2.97;;
80101;SDS011;69407;44.966;19.622;2024-03-25T10:15:57;6.05;;;2.78;;
80101;SDS011;69407;44.966;19.622;2024-03-25T10:18:23;6.57;;;3.72;;
80101;SDS011;69407;44.966;19.622;2024-03-25T10:20:51;10.63;;;5.22;;
80101;SDS011;69407;44.966;19.622;2024-03-25T10:23:20;4.88;;;1.73;;
80101;SDS011;69407;44.966;19.622;2024-03-25T10:25:47;3.80;;;1.73;;
80101;SDS011;69407;44.966;19.622;2024-03-25T10:28:12;3.42;;;2.00;;
80101;SDS011;69407;44.966;19.622;2024-03-25T10:30:38;7.37;;;2.87;;
80101;SDS011;69407;44.966;19.622;2024-03-25T10:33:06;6.82;;;2.78;;
80101;SDS011;69407;44.966;19.622;2024-03-25T10:35:36;9.80;;;4.50;;
80101;SDS011;69407;44.966;19.622;2024-03-25T10:38:06;3.92;;;1.65;;
80101;SDS011;69407;44.966;19.622;2024-03-25T10:40:32;7.05;;;3.60;;
80101;SDS011;69407;44.966;19.622;2024-03-25T10:43:00;7.63;;;3.50;;
80101;SDS011;69407;44.966;19.622;2024-03-25T10:47:52;3.85;;;1.70;;
80101;SDS011;69407;44.966;19.622;2024-03-25T10:50:17;8.82;;;5.22;;
80101;SDS011;69407;44.966;19.622;2024-03-25T10:52:47;5.65;;;2.83;;
80101;SDS011;69407;44.966;19.622;2024-03-25T10:55:13;8.15;;;4.15;;
80101;SDS011;69407;44.966;19.622;2024-03-25T10:57:38;4.82;;;2.50;;
80101;SDS011;69407;44.966;19.622;2024-03-25T11:00:05;2.85;;;1.33;;
80101;SDS011;69407;44.966;19.622;2024-03-25T11:02:32;3.53;;;1.95;;
80101;SDS011;69407;44.966;19.622;2024-03-25T11:04:57;3.17;;;1.40;;
80101;SDS011;69407;44.966;19.622;2024-03-25T11:07:30;6.40;;;4.85;;
80101;SDS011;69407;44.966;19.622;2024-03-25T11:10:02;4.43;;;2.05;;
80101;SDS011;69407;44.966;19.622;2024-03-25T11:12:37;7.93;;;2.25;;
80101;SDS011;69407;44.966;19.622;2024-03-25T11:15:03;10.38;;;3.60;;
80101;SDS011;69407;44.966;19.622;2024-03-25T11:17:29;2.00;;;1.08;;
80101;SDS011;69407;44.966;19.622;2024-03-25T11:19:54;6.28;;;2.13;;
80101;SDS011;69407;44.966;19.622;2024-03-25T11:22:31;12.57;;;4.07;;
80101;SDS011;69407;44.966;19.622;2024-03-25T11:24:57;4.35;;;2.10;;
80101;SDS011;69407;44.966;19.622;2024-03-25T11:27:31;6.18;;;1.92;;
80101;SDS011;69407;44.966;19.622;2024-03-25T11:29:56;8.40;;;2.97;;
80101;SDS011;69407;44.966;19.622;2024-03-25T11:32:22;21.48;;;7.05;;
80101;SDS011;69407;44.966;19.622;2024-03-25T11:34:50;4.90;;;1.40;;
80101;SDS011;69407;44.966;19.622;2024-03-25T11:37:16;6.82;;;3.60;;
80101;SDS011;69407;44.966;19.622;2024-03-25T11:39:41;24.45;;;9.55;;
80101;SDS011;69407;44.966;19.622;2024-03-25T11:42:10;22.42;;;8.80;;
80101;SDS011;69407;44.966;19.622;2024-03-25T11:44:38;8.15;;;3.35;;
80101;SDS011;69407;44.966;19.622;2024-03-25T11:47:05;8.90;;;3.78;;
80101;SDS011;69407;44.966;19.622;2024-03-25T11:49:32;20.13;;;8.73;;
80101;SDS011;69407;44.966;19.622;2024-03-25T11:51:58;15.65;;;5.30;;
80101;SDS011;69407;44.966;19.622;2024-03-25T11:54:26;8.68;;;3.58;;
80101;SDS011;69407;44.966;19.622;2024-03-25T11:59:17;12.05;;;4.55;;
80101;SDS011;69407;44.966;19.622;2024-03-25T12:01:44;23.33;;;9.70;;
80101;SDS011;69407;44.966;19.622;2024-03-25T12:04:10;7.40;;;2.95;;
80101;SDS011;69407;44.966;19.622;2024-03-25T12:06:35;6.15;;;2.72;;
80101;SDS011;69407;44.966;19.622;2024-03-25T12:09:01;3.08;;;1.55;;
80101;SDS011;69407;44.966;19.622;2024-03-25T12:11:45;5.10;;;1.98;;
80101;SDS011;69407;44.966;19.622;2024-03-25T12:14:10;4.05;;;1.80;;
80101;SDS011;69407;44.966;19.622;2024-03-25T12:16:35;8.77;;;4.05;;
80101;SDS011;69407;44.966;19.622;2024-03-25T12:19:01;3.88;;;1.63;;
80101;SDS011;69407;44.966;19.622;2024-03-25T12:21:27;3.25;;;1.52;;
80101;SDS011;69407;44.966;19.622;2024-03-25T12:23:53;3.08;;;1.30;;
80101;SDS011;69407;44.966;19.622;2024-03-25T12:26:19;5.90;;;2.40;;
80101;SDS011;69407;44.966;19.622;2024-03-25T12:28:45;4.72;;;2.20;;
80101;SDS011;69407;44.966;19.622;2024-03-25T12:31:10;4.88;;;2.15;;
80101;SDS011;69407;44.966;19.622;2024-03-25T12:33:43;6.20;;;3.03;;
80101;SDS011;69407;44.966;19.622;2024-03-25T12:36:08;3.63;;;1.95;;
80101;SDS011;69407;44.966;19.622;2024-03-25T12:38:34;3.78;;;1.70;;
80101;SDS011;69407;44.966;19.622;2024-03-25T12:43:34;1.83;;;0.90;;
80101;SDS011;69407;44.966;19.622;2024-03-25T12:46:00;18.00;;;8.88;;
80101;SDS011;69407;44.966;19.622;2024-03-25T12:48:26;4.40;;;1.70;;
80101;SDS011;69407;44.966;19.622;2024-03-25T12:50:51;7.80;;;2.95;;
80101;SDS011;69407;44.966;19.622;2024-03-25T12:53:18;2.90;;;1.13;;
80101;SDS011;69407;44.966;19.622;2024-03-25T12:55:45;8.65;;;4.38;;
80101;SDS011;69407;44.966;19.622;2024-03-25T12:58:10;1.60;;;0.65;;
80101;SDS011;69407;44.966;19.622;2024-03-25T13:00:36;2.08;;;1.10;;
80101;SDS011;69407;44.966;19.622;2024-03-25T13:03:02;15.15;;;6.60;;
80101;SDS011;69407;44.966;19.622;2024-03-25T13:05:27;23.83;;;11.07;;
80101;SDS011;69407;44.966;19.622;2024-03-25T13:07:53;1.50;;;0.60;;
80101;SDS011;69407;44.966;19.622;2024-03-25T13:10:18;4.57;;;2.20;;
80101;SDS011;69407;44.966;19.622;2024-03-25T13:12:44;1.63;;;0.38;;
80101;SDS011;69407;44.966;19.622;2024-03-25T13:15:09;2.17;;;0.60;;
80101;SDS011;69407;44.966;19.622;2024-03-25T13:17:35;3.80;;;0.33;;
80101;SDS011;69407;44.966;19.622;2024-03-25T13:20:00;2.45;;;0.50;;
80101;SDS011;69407;44.966;19.622;2024-03-25T13:22:25;2.47;;;0.98;;
80101;SDS011;69407;44.966;19.622;2024-03-25T13:24:50;2.55;;;0.85;;
80101;SDS011;69407;44.966;19.622;2024-03-25T13:27:16;2.35;;;0.63;;
80101;SDS011;69407;44.966;19.622;2024-03-25T13:29:41;3.28;;;1.30;;
80101;SDS011;69407;44.966;19.622;2024-03-25T13:32:06;2.50;;;0.70;;
80101;SDS011;69407;44.966;19.622;2024-03-25T13:34:32;2.47;;;0.63;;
80101;SDS011;69407;44.966;19.622;2024-03-25T13:36:57;2.63;;;1.30;;
80101;SDS011;69407;44.966;19.622;2024-03-25T13:39:22;3.95;;;0.90;;
80101;SDS011;69407;44.966;19.622;2024-03-25T13:41:48;3.85;;;0.50;;
80101;SDS011;69407;44.966;19.622;2024-03-25T13:44:13;2.60;;;0.60;;
80101;SDS011;69407;44.966;19.622;2024-03-25T13:46:38;2.45;;;0.63;;
80101;SDS011;69407;44.966;19.622;2024-03-25T13:49:04;2.78;;;0.30;;
80101;SDS011;69407;44.966;19.622;2024-03-25T13:51:30;2.05;;;0.60;;
80101;SDS011;69407;44.966;19.622;2024-03-25T13:53:55;1.40;;;0.40;;
80101;SDS011;69407;44.966;19.622;2024-03-25T13:56:20;1.88;;;0.73;;
80101;SDS011;69407;44.966;19.622;2024-03-25T13:58:46;0.93;;;0.30;;
80101;SDS011;69407;44.966;19.622;2024-03-25T14:01:11;1.30;;;0.33;;
80101;SDS011;69407;44.966;19.622;2024-03-25T14:03:36;1.55;;;0.40;;
80101;SDS011;69407;44.966;19.622;2024-03-25T14:06:02;1.38;;;0.70;;
80101;SDS011;69407;44.966;19.622;2024-03-25T14:08:27;1.15;;;0.30;;
80101;SDS011;69407;44.966;19.622;2024-03-25T14:10:59;1.00;;;0.33;;
80101;SDS011;69407;44.966;19.622;2024-03-25T14:13:25;1.55;;;0.20;;
80101;SDS011;69407;44.966;19.622;2024-03-25T14:15:50;2.50;;;0.93;;
80101;SDS011;69407;44.966;19.622;2024-03-25T14:18:16;7.18;;;3.28;;
80101;SDS011;69407;44.966;19.622;2024-03-25T14:20:41;3.00;;;0.75;;
80101;SDS011;69407;44.966;19.622;2024-03-25T14:23:07;14.93;;;8.63;;